Time,TemperatureF,DewpointF,PressureIn,WindDirection,WindDirectionDegrees,WindSpeedMPH,WindSpeedGustMPH,Humidity,HourlyPrecipIn,Conditions,Clouds,dailyrainin,SoftwareType,DateUTC
2013-11-14 00:02:00,30.9,26.1,30.29,South,180,0.0,-999.0,82,-99.99,,,0.00,Acu-Link.com,2013-11-14 06:02:00,
2013-11-14 00:18:00,30.7,25.9,30.29,West,270,1.7,-999.0,82,-99.99,,,0.00,Acu-Link.com,2013-11-14 06:18:00,
2013-11-14 00:33:00,30.7,26.2,30.28,West,270,1.7,-999.0,83,-99.99,,,0.00,Acu-Link.com,2013-11-14 06:33:00,
2013-11-14 00:48:00,30.4,25.9,30.28,West,270,0.0,-999.0,83,-99.99,,,0.00,Acu-Link.com,2013-11-14 06:48:00,
2013-11-14 01:03:00,30.4,25.9,30.27,WNW,292,0.0,-999.0,83,-99.99,,,0.00,Acu-Link.com,2013-11-14 07:03:00,
2013-11-14 01:19:00,30.4,25.9,30.27,WNW,292,0.0,-999.0,83,-99.99,,,0.00,Acu-Link.com,2013-11-14 07:19:00,
2013-11-14 01:34:00,29.7,25.8,30.27,West,270,0.0,-999.0,85,-99.99,,,0.00,Acu-Link.com,2013-11-14 07:34:00,
2013-11-14 01:49:00,29.7,25.8,30.26,West,270,0.0,-999.0,85,-99.99,,,0.00,Acu-Link.com,2013-11-14 07:49:00,
2013-11-14 02:05:00,29.8,25.6,30.26,WNW,292,0.0,-999.0,84,-99.99,,,0.00,Acu-Link.com,2013-11-14 08:05:00,
2013-11-14 02:20:00,29.8,25.6,30.25,ESE,112,0.0,-999.0,84,-99.99,,,0.00,Acu-Link.com,2013-11-14 08:20:00,
2013-11-14 02:35:00,29.1,25.4,30.25,East,90,0.0,-999.0,86,-99.99,,,0.00,Acu-Link.com,2013-11-14 08:35:00,
2013-11-14 02:50:00,29.1,25.2,30.25,South,180,0.0,-999.0,85,-99.99,,,0.00,Acu-Link.com,2013-11-14 08:50:00,
2013-11-14 03:05:00,29.1,25.7,30.24,NNW,337,0.0,-999.0,87,-99.99,,,0.00,Acu-Link.com,2013-11-14 09:05:00,
2013-11-14 03:20:00,28.9,25.5,30.24,ESE,112,0.0,-999.0,87,-99.99,,,0.00,Acu-Link.com,2013-11-14 09:20:00,
2013-11-14 03:36:00,28.6,25.2,30.23,SSW,202,0.0,-999.0,87,-99.99,,,0.00,Acu-Link.com,2013-11-14 09:36:00,
2013-11-14 03:51:00,28.4,25.0,30.23,West,270,0.0,-999.0,87,-99.99,,,0.00,Acu-Link.com,2013-11-14 09:51:00,
2013-11-14 04:06:00,28.6,25.2,30.22,ESE,112,0.0,-999.0,87,-99.99,,,0.00,Acu-Link.com,2013-11-14 10:06:00,
2013-11-14 04:21:00,28.6,25.0,30.21,ESE,112,0.0,-999.0,86,-99.99,,,0.00,Acu-Link.com,2013-11-14 10:21:00,
2013-11-14 04:37:00,28.4,25.3,30.20,East,90,0.0,-999.0,88,-99.99,,,0.00,Acu-Link.com,2013-11-14 10:37:00,
2013-11-14 04:52:00,28.9,25.8,30.19,ENE,67,0.0,-999.0,88,-99.99,,,0.00,Acu-Link.com,2013-11-14 10:52:00,
2013-11-14 05:07:00,30.2,27.4,30.18,ESE,112,1.7,-999.0,89,-99.99,,,0.00,Acu-Link.com,2013-11-14 11:07:00,
2013-11-14 05:23:00,30.7,27.6,30.18,ESE,112,0.0,-999.0,88,-99.99,,,0.00,Acu-Link.com,2013-11-14 11:23:00,
2013-11-14 05:38:00,31.1,27.7,30.17,East,90,0.0,-999.0,87,-99.99,,,0.00,Acu-Link.com,2013-11-14 11:38:00,
2013-11-14 05:53:00,31.3,27.6,30.17,West,270,0.0,-999.0,86,-99.99,,,0.00,Acu-Link.com,2013-11-14 11:53:00,
2013-11-14 06:08:00,31.1,27.4,30.16,East,90,0.0,-999.0,86,-99.99,,,0.00,Acu-Link.com,2013-11-14 12:08:00,
2013-11-14 06:24:00,30.9,27.2,30.16,ENE,67,0.0,-999.0,86,-99.99,,,0.00,Acu-Link.com,2013-11-14 12:24:00,
2013-11-14 06:39:00,30.7,27.0,30.16,ENE,67,0.0,-999.0,86,-99.99,,,0.00,Acu-Link.com,2013-11-14 12:39:00,
2013-11-14 06:54:00,30.9,27.5,30.16,ENE,67,0.0,-999.0,87,-99.99,,,0.00,Acu-Link.com,2013-11-14 12:54:00,
2013-11-14 07:09:00,31.5,28.9,30.15,ESE,112,0.0,-999.0,90,-99.99,,,0.00,Acu-Link.com,2013-11-14 13:09:00,
2013-11-14 07:25:00,32.9,29.7,30.15,ESE,112,0.0,-999.0,88,-99.99,,,0.00,Acu-Link.com,2013-11-14 13:25:00,
2013-11-14 07:40:00,37.2,31.0,30.15,ESE,112,0.0,-999.0,78,-99.99,,,0.00,Acu-Link.com,2013-11-14 13:40:00,
2013-11-14 07:55:00,43.5,32.5,30.15,ESE,112,2.7,-999.0,65,-99.99,,,0.00,Acu-Link.com,2013-11-14 13:55:00,
2013-11-14 08:11:00,42.6,32.4,30.15,ESE,112,1.7,-999.0,67,-99.99,,,0.00,Acu-Link.com,2013-11-14 14:11:00,
2013-11-14 08:26:00,45.9,33.2,30.15,ENE,67,4.2,-999.0,61,-99.99,,,0.00,Acu-Link.com,2013-11-14 14:26:00,
2013-11-14 08:41:00,45.5,32.4,30.14,SSE,157,1.7,-999.0,60,-99.99,,,0.00,Acu-Link.com,2013-11-14 14:41:00,
2013-11-14 08:56:00,46.8,32.8,30.14,South,180,2.7,-999.0,58,-99.99,,,0.00,Acu-Link.com,2013-11-14 14:56:00,
2013-11-14 09:11:00,48.2,31.4,30.13,SSE,157,2.2,-999.0,52,-99.99,,,0.00,Acu-Link.com,2013-11-14 15:11:00,
2013-11-14 09:27:00,49.5,32.1,30.13,ESE,112,4.2,-999.0,51,-99.99,,,0.00,Acu-Link.com,2013-11-14 15:27:00,
2013-11-14 09:42:00,49.8,31.4,30.13,North,0,3.7,-999.0,49,-99.99,,,0.00,Acu-Link.com,2013-11-14 15:42:00,
2013-11-14 09:57:00,50.9,31.4,30.13,SSW,202,2.7,-999.0,47,-99.99,,,0.00,Acu-Link.com,2013-11-14 15:57:00,
2013-11-14 10:12:00,51.1,31.6,30.13,SE,135,3.7,-999.0,47,-99.99,,,0.00,Acu-Link.com,2013-11-14 16:12:00,
2013-11-14 10:28:00,52.3,32.1,30.12,ESE,112,5.3,-999.0,46,-99.99,,,0.00,Acu-Link.com,2013-11-14 16:28:00,
2013-11-14 10:43:00,54.5,31.9,30.11,NNE,22,3.2,-999.0,42,-99.99,,,0.00,Acu-Link.com,2013-11-14 16:43:00,
2013-11-14 10:58:00,55.0,30.5,30.10,ESE,112,5.8,-999.0,39,-99.99,,,0.00,Acu-Link.com,2013-11-14 16:58:00,
2013-11-14 11:13:00,56.3,31.7,30.10,SSE,157,2.2,-999.0,39,-99.99,,,0.00,Acu-Link.com,2013-11-14 17:13:00,
2013-11-14 11:29:00,56.8,28.7,30.08,SE,135,3.2,-999.0,34,-99.99,,,0.00,Acu-Link.com,2013-11-14 17:29:00,
2013-11-14 11:44:00,56.8,28.7,30.08,East,90,4.7,-999.0,34,-99.99,,,0.00,Acu-Link.com,2013-11-14 17:44:00,
2013-11-14 11:59:00,57.2,29.8,30.06,ESE,112,5.3,-999.0,35,-99.99,,,0.00,Acu-Link.com,2013-11-14 17:59:00,
2013-11-14 12:14:00,57.0,29.6,30.05,ESE,112,4.7,-999.0,35,-99.99,,,0.00,Acu-Link.com,2013-11-14 18:14:00,
2013-11-14 12:29:00,59.5,31.8,30.03,ESE,112,3.2,-999.0,35,-99.99,,,0.00,Acu-Link.com,2013-11-14 18:29:00,
2013-11-14 12:45:00,58.8,29.8,30.02,SE,135,2.2,-999.0,33,-99.99,,,0.00,Acu-Link.com,2013-11-14 18:45:00,
2013-11-14 13:00:00,59.9,27.6,30.02,WSW,247,7.3,-999.0,29,-99.99,,,0.00,Acu-Link.com,2013-11-14 19:00:00,
2013-11-14 13:15:00,59.0,29.2,30.01,ESE,112,4.2,-999.0,32,-99.99,,,0.00,Acu-Link.com,2013-11-14 19:15:00,
2013-11-14 13:30:00,59.9,31.5,30.01,SSE,157,3.2,-999.0,34,-99.99,,,0.00,Acu-Link.com,2013-11-14 19:30:00,
2013-11-14 13:45:00,59.0,34.1,30.00,ESE,112,7.3,-999.0,39,-99.99,,,0.00,Acu-Link.com,2013-11-14 19:45:00,
2013-11-14 14:01:00,60.6,34.9,29.99,SE,135,7.3,-999.0,38,-99.99,,,0.00,Acu-Link.com,2013-11-14 20:01:00,
2013-11-14 14:16:00,61.7,35.8,29.99,SSE,157,6.8,-999.0,38,-99.99,,,0.00,Acu-Link.com,2013-11-14 20:16:00,
2013-11-14 14:31:00,61.3,36.1,29.98,SSW,202,5.3,-999.0,39,-99.99,,,0.00,Acu-Link.com,2013-11-14 20:31:00,
2013-11-14 14:47:00,61.3,37.4,29.97,SSE,157,2.7,-999.0,41,-99.99,,,0.00,Acu-Link.com,2013-11-14 20:47:00,
2013-11-14 15:02:00,60.6,36.8,29.97,ESE,112,3.7,-999.0,41,-99.99,,,0.00,Acu-Link.com,2013-11-14 21:02:00,
2013-11-14 15:17:00,60.3,37.1,29.97,NNW,337,3.7,-999.0,42,-99.99,,,0.00,Acu-Link.com,2013-11-14 21:17:00,
2013-11-14 15:32:00,58.6,37.9,29.96,ENE,67,3.2,-999.0,46,-99.99,,,0.00,Acu-Link.com,2013-11-14 21:32:00,
2013-11-14 15:48:00,60.8,38.8,29.95,ENE,67,2.7,-999.0,44,-99.99,,,0.00,Acu-Link.com,2013-11-14 21:48:00,
2013-11-14 16:03:00,59.7,38.3,29.95,ESE,112,3.7,-999.0,45,-99.99,,,0.00,Acu-Link.com,2013-11-14 22:03:00,
2013-11-14 16:18:00,59.4,38.6,29.95,SSW,202,2.2,-999.0,46,-99.99,,,0.00,Acu-Link.com,2013-11-14 22:18:00,
2013-11-14 16:33:00,58.1,38.5,29.95,SE,135,4.2,-999.0,48,-99.99,,,0.00,Acu-Link.com,2013-11-14 22:33:00,
2013-11-14 16:49:00,57.9,38.9,29.94,SSE,157,3.2,-999.0,49,-99.99,,,0.00,Acu-Link.com,2013-11-14 22:49:00,
2013-11-14 17:04:00,57.2,38.7,29.94,ESE,112,3.7,-999.0,50,-99.99,,,0.00,Acu-Link.com,2013-11-14 23:04:00,
2013-11-14 17:19:00,56.5,39.1,29.93,SSW,202,3.2,-999.0,52,-99.99,,,0.00,Acu-Link.com,2013-11-14 23:19:00,
2013-11-14 17:34:00,55.8,39.4,29.94,SE,135,2.2,-999.0,54,-99.99,,,0.00,Acu-Link.com,2013-11-14 23:34:00,
2013-11-14 17:50:00,55.2,39.3,29.94,ESE,112,3.2,-999.0,55,-99.99,,,0.00,Acu-Link.com,2013-11-14 23:50:00,
2013-11-14 18:05:00,55.0,39.6,29.94,East,90,3.7,-999.0,56,-99.99,,,0.00,Acu-Link.com,2013-11-15 00:05:00,
2013-11-14 18:20:00,54.5,40.0,29.94,SE,135,3.7,-999.0,58,-99.99,,,0.00,Acu-Link.com,2013-11-15 00:20:00,
2013-11-14 18:36:00,54.1,40.5,29.95,ESE,112,2.2,-999.0,60,-99.99,,,0.00,Acu-Link.com,2013-11-15 00:36:00,
2013-11-14 18:51:00,54.1,41.4,29.94,ESE,112,2.7,-999.0,62,-99.99,,,0.00,Acu-Link.com,2013-11-15 00:51:00,
2013-11-14 19:06:00,54.0,42.1,29.96,East,90,0.0,-999.0,64,-99.99,,,0.00,Acu-Link.com,2013-11-15 01:06:00,
2013-11-14 19:21:00,53.1,42.4,29.95,ESE,112,2.2,-999.0,67,-99.99,,,0.00,Acu-Link.com,2013-11-15 01:21:00,
2013-11-14 19:37:00,52.7,43.2,29.95,ESE,112,2.7,-999.0,70,-99.99,,,0.00,Acu-Link.com,2013-11-15 01:37:00,
2013-11-14 19:52:00,52.7,43.6,29.94,SE,135,2.7,-999.0,71,-99.99,,,0.00,Acu-Link.com,2013-11-15 01:52:00,
2013-11-14 20:07:00,52.7,43.6,29.95,ESE,112,2.7,-999.0,71,-99.99,,,0.00,Acu-Link.com,2013-11-15 02:07:00,
2013-11-14 20:22:00,52.7,43.9,29.94,ENE,67,2.7,-999.0,72,-99.99,,,0.00,Acu-Link.com,2013-11-15 02:22:00,
2013-11-14 20:38:00,52.5,44.1,29.94,ESE,112,2.2,-999.0,73,-99.99,,,0.00,Acu-Link.com,2013-11-15 02:38:00,
2013-11-14 20:53:00,52.2,44.2,29.94,East,90,2.2,-999.0,74,-99.99,,,0.00,Acu-Link.com,2013-11-15 02:53:00,
2013-11-14 21:08:00,52.0,44.0,29.94,SW,225,0.0,-999.0,74,-99.99,,,0.00,Acu-Link.com,2013-11-15 03:08:00,
2013-11-14 21:24:00,51.8,43.8,29.95,SE,135,1.1,-999.0,74,-99.99,,,0.00,Acu-Link.com,2013-11-15 03:24:00,
2013-11-14 21:39:00,51.4,44.1,29.96,West,270,0.0,-999.0,76,-99.99,,,0.00,Acu-Link.com,2013-11-15 03:39:00,
2013-11-14 21:54:00,51.4,44.4,29.95,SSW,202,0.0,-999.0,77,-99.99,,,0.00,Acu-Link.com,2013-11-15 03:54:00,
2013-11-14 22:09:00,51.8,44.8,29.96,SSW,202,0.0,-999.0,77,-99.99,,,0.00,Acu-Link.com,2013-11-15 04:09:00,
2013-11-14 22:24:00,52.2,44.9,29.94,ESE,112,0.0,-999.0,76,-99.99,,,0.00,Acu-Link.com,2013-11-15 04:24:00,
2013-11-14 22:40:00,52.2,44.9,29.93,ESE,112,2.2,-999.0,76,-99.99,,,0.00,Acu-Link.com,2013-11-15 04:40:00,
2013-11-14 22:55:00,52.2,45.2,29.93,SW,225,2.7,-999.0,77,-99.99,,,0.00,Acu-Link.com,2013-11-15 04:55:00,
2013-11-14 23:26:00,53.2,46.2,29.92,South,180,3.7,-999.0,77,-99.99,,,0.00,Acu-Link.com,2013-11-15 05:26:00,
2013-11-14 23:41:00,53.6,46.9,29.93,SE,135,1.7,-999.0,78,-99.99,,,0.00,Acu-Link.com,2013-11-15 05:41:00,
2013-11-14 23:56:00,54.1,47.4,29.92,ESE,112,2.7,-999.0,78,-99.99,,,0.00,Acu-Link.com,2013-11-15 05:56:00,